Terminal Aerodrome Forecast
Issued by NWS

Home | Current Version | Previous Version | Text Only | Print | Product List | Glossary On
Versions: 1 2 3 4 5 6 7 8 9 10 11 12 13 14 15 16 17 18 19 20 21 22 23 24 25 26 27 28 29 30 31 32 33
000
FTUS46 KEKA 201748
TAFUKI
TAF
KUKI 201748Z 2018/2118 15008KT 4SM -RA BR SCT006 BKN015 OVC025
     FM202100 16014G22KT 4SM -RA BR OVC020
     FM210200 16016G25KT 4SM -RA OVC020
      TEMPO 2103/2106 -TSRA BKN025CB
     FM210800 15014G24KT 5SM -SHRA BR OVC020
     FM211200 20010G18KT 6SM -SHRA BR BKN020
     FM211500 14006KT 6SM -SHRA BKN030=

USA.gov is the U.S. government's official web portal to all federal, state and local government web resources and services.